createdAt,value
2022-10-12T00:00:44.845Z,100039.47
2022-10-12T00:04:46.074Z,100044.53
2022-10-12T00:08:48.710Z,100034.94
2022-10-12T00:12:49.936Z,100041.59
2022-10-12T00:16:51.352Z,100035.50
2022-10-12T00:21:00.386Z,100036.31
2022-10-12T00:25:01.782Z,100034.50
2022-10-12T00:29:03.877Z,100039.63
2022-10-12T00:33:05.337Z,100045.50
2022-10-12T00:37:06.604Z,100046.34
2022-10-12T00:41:08.338Z,100055.72
2022-10-12T00:45:10.016Z,100050.38
2022-10-12T00:49:20.185Z,100050.28
2022-10-12T00:53:23.768Z,100055.34
2022-10-12T00:57:25.476Z,100054.44
2022-10-12T01:01:27.211Z,100049.25
2022-10-12T01:05:29.001Z,100048.28
2022-10-12T01:09:30.344Z,100047.28
2022-10-12T01:13:32.469Z,100044.56
2022-10-12T01:17:45.998Z,100047.03
2022-10-12T01:21:58.009Z,100047.72
2022-10-12T01:26:16.859Z,100049.28
2022-10-12T01:30:22.661Z,100056.84
2022-10-12T01:34:34.560Z,100049.81
2022-10-12T01:38:54.613Z,100050.56
2022-10-12T01:42:57.261Z,100037.69
2022-10-12T01:46:58.528Z,100041.88
2022-10-12T01:51:02.149Z,100033.25
2022-10-12T01:55:03.469Z,100030.59
2022-10-12T01:59:14.356Z,100031.41
2022-10-12T02:03:25.174Z,100026.00
2022-10-12T02:07:32.904Z,100029.34
2022-10-12T02:11:37.466Z,100024.16
2022-10-12T02:15:40.060Z,100026.63
2022-10-12T02:19:45.381Z,100019.69
2022-10-12T02:23:47.792Z,100012.69
2022-10-12T02:27:51.900Z,100009.81
2022-10-12T02:31:59.020Z,100000.38
2022-10-12T02:36:09.251Z,99991.66
2022-10-12T02:40:12.925Z,99997.59
2022-10-12T02:44:17.169Z,99997.34
2022-10-12T02:48:23.419Z,99997.22
2022-10-12T02:52:24.956Z,99993.78
2022-10-12T02:56:26.465Z,99999.72
2022-10-12T03:00:27.970Z,99990.22
2022-10-12T03:04:29.218Z,99999.72
2022-10-12T03:08:30.496Z,99995.28
2022-10-12T03:12:31.732Z,99993.59
2022-10-12T03:16:33.323Z,99985.78
2022-10-12T03:20:34.642Z,99992.53
2022-10-12T03:24:35.921Z,99987.16
2022-10-12T03:28:37.224Z,99985.19
2022-10-12T03:32:40.174Z,99986.94
2022-10-12T03:36:41.437Z,99991.97
2022-10-12T03:40:43.045Z,99991.13
2022-10-12T03:44:44.391Z,100003.94
2022-10-12T03:48:46.087Z,100008.13
2022-10-12T03:52:47.549Z,100009.78
2022-10-12T03:56:48.831Z,100008.97
2022-10-12T04:00:53.195Z,100006.31
2022-10-12T04:04:54.531Z,100007.78
2022-10-12T04:08:55.756Z,100000.84
2022-10-12T04:12:57.460Z,100003.38
2022-10-12T04:16:59.691Z,100000.69
2022-10-12T04:21:01.345Z,100002.28
2022-10-12T04:25:02.636Z,100008.69
2022-10-12T04:29:04.371Z,100003.41
2022-10-12T04:33:05.718Z,99999.97
2022-10-12T04:37:07.404Z,100003.44
2022-10-12T04:41:08.624Z,100000.84
2022-10-12T04:45:10.096Z,100004.22
2022-10-12T04:49:11.400Z,99996.38
2022-10-12T04:53:13.153Z,100005.78
2022-10-12T04:57:14.385Z,100015.84
2022-10-12T05:01:15.754Z,100014.78
2022-10-12T05:05:17.104Z,100008.72
2022-10-12T05:09:18.464Z,100008.00
2022-10-12T05:13:19.736Z,100009.66
2022-10-12T05:17:21.008Z,99999.28
2022-10-12T05:21:22.260Z,99995.78
2022-10-12T05:25:23.648Z,99999.88
2022-10-12T05:29:24.978Z,100003.84
2022-10-12T05:33:26.641Z,100001.19
2022-10-12T05:37:28.052Z,100000.38
2022-10-12T05:41:29.309Z,99998.00
2022-10-12T05:45:30.623Z,100013.72
2022-10-12T05:49:32.584Z,100009.69
2022-10-12T05:53:33.933Z,100008.50
2022-10-12T05:57:36.876Z,100008.91
2022-10-12T06:01:38.180Z,100010.97
2022-10-12T06:05:39.505Z,100007.09
2022-10-12T06:09:40.900Z,100003.56
2022-10-12T06:13:42.380Z,100003.81
2022-10-12T06:17:43.628Z,100003.16
2022-10-12T06:21:44.950Z,100000.94
2022-10-12T06:25:50.082Z,99994.50
2022-10-12T06:29:52.466Z,100007.72
2022-10-12T06:33:53.916Z,100012.06
2022-10-12T06:37:55.214Z,100009.72
2022-10-12T06:41:56.556Z,100012.72
2022-10-12T06:46:04.108Z,100019.16
2022-10-12T06:50:05.828Z,100021.38
2022-10-12T06:54:07.312Z,100022.53
2022-10-12T06:58:08.707Z,100023.66
2022-10-12T07:02:11.398Z,100023.94
2022-10-12T07:06:13.861Z,100032.84
2022-10-12T07:10:15.456Z,100021.88
2022-10-12T07:14:16.725Z,100029.81
2022-10-12T07:18:18.015Z,100037.84
2022-10-12T07:22:19.252Z,100040.72
2022-10-12T07:26:20.519Z,100048.81
2022-10-12T07:30:21.793Z,100051.66
2022-10-12T07:34:23.067Z,100048.56
2022-10-12T07:38:24.370Z,100053.16
2022-10-12T07:42:25.649Z,100048.31
2022-10-12T07:46:27.052Z,100048.69
2022-10-12T07:50:28.359Z,100039.59
2022-10-12T07:54:30.143Z,100040.75
2022-10-12T07:58:32.059Z,100034.06
2022-10-12T08:02:33.330Z,100042.13
2022-10-12T08:06:34.650Z,100033.78
2022-10-12T08:10:35.981Z,100043.53
2022-10-12T08:14:38.438Z,100048.06
2022-10-12T08:18:39.809Z,100042.31
2022-10-12T08:22:41.127Z,100039.09
2022-10-12T08:26:42.415Z,100049.72
2022-10-12T08:30:43.689Z,100051.75
2022-10-12T08:34:44.960Z,100043.41
2022-10-12T08:38:50.742Z,100040.19
2022-10-12T08:43:15.323Z,100038.75
2022-10-12T08:47:34.423Z,100038.84
2022-10-12T08:51:40.229Z,100039.88
2022-10-12T08:55:46.069Z,100042.59
2022-10-12T08:59:47.539Z,100041.84
2022-10-12T09:03:58.428Z,100041.13
2022-10-12T09:08:04.131Z,100040.31
2022-10-12T09:12:05.474Z,100041.28
2022-10-12T09:16:14.096Z,100033.56
2022-10-12T09:20:22.008Z,100037.94
2022-10-12T09:24:25.561Z,100036.25
2022-10-12T09:28:37.653Z,100044.09
2022-10-12T09:32:43.608Z,100038.97
2022-10-12T09:36:45.440Z,100036.41
2022-10-12T09:40:47.348Z,100039.03
2022-10-12T09:44:49.906Z,100032.16
2022-10-12T09:48:58.501Z,100036.50
2022-10-12T09:53:01.093Z,100037.38
2022-10-12T09:57:02.573Z,100035.69
2022-10-12T10:01:16.307Z,100029.63
2022-10-12T10:05:28.051Z,100043.53
2022-10-12T10:09:33.301Z,100047.00
2022-10-12T10:13:37.689Z,100039.19
2022-10-12T10:17:39.549Z,100031.38
2022-10-12T10:21:40.906Z,100035.69
2022-10-12T10:25:43.881Z,100043.50
2022-10-12T10:29:45.482Z,100040.03
2022-10-12T10:34:03.844Z,100039.13
2022-10-12T10:38:05.213Z,100038.22
2022-10-12T10:42:11.147Z,100038.16
2022-10-12T10:46:13.404Z,100041.56
2022-10-12T10:50:25.892Z,100029.41
2022-10-12T10:54:28.981Z,100025.03
2022-10-12T10:58:34.184Z,100017.97
2022-10-12T11:02:40.368Z,100013.53
2022-10-12T11:06:43.365Z,100007.34
2022-10-12T11:10:44.658Z,100006.34
2022-10-12T11:14:48.829Z,100005.38
2022-10-12T11:18:53.215Z,99997.47
2022-10-12T11:22:57.832Z,100003.38
2022-10-12T11:27:08.298Z,100000.63
2022-10-12T11:31:31.004Z,99997.88
2022-10-12T11:35:34.883Z,99988.22
2022-10-12T11:39:40.160Z,99987.44
2022-10-12T11:43:49.664Z,99997.00
2022-10-12T11:47:53.892Z,99984.78
2022-10-12T11:51:57.781Z,99981.34
2022-10-12T11:56:22.388Z,99977.81
2022-10-12T12:00:27.757Z,99987.28
2022-10-12T12:04:47.379Z,99980.94
2022-10-12T12:08:54.942Z,99982.72
2022-10-12T12:13:15.205Z,99978.22
2022-10-12T12:17:19.641Z,99973.69
2022-10-12T12:21:20.924Z,99966.53
2022-10-12T12:25:32.149Z,99968.41
2022-10-12T12:29:33.531Z,99956.97
2022-10-12T12:33:36.032Z,99952.47
2022-10-12T12:37:37.721Z,99952.50
2022-10-12T12:42:00.558Z,99948.34
2022-10-12T12:46:14.860Z,99953.44
2022-10-12T12:50:34.060Z,99941.16
2022-10-12T12:54:37.038Z,99934.03
2022-10-12T12:58:38.289Z,99931.31
2022-10-12T13:02:58.728Z,99936.34
2022-10-12T13:07:12.206Z,99948.69
2022-10-12T13:11:28.977Z,99946.09
2022-10-12T13:15:33.234Z,99943.34
2022-10-12T13:19:36.131Z,99944.06
2022-10-12T13:23:37.691Z,99940.47
2022-10-12T13:28:05.355Z,99942.97
2022-10-12T13:32:14.019Z,99940.44
2022-10-12T13:36:18.396Z,99943.16
2022-10-12T13:40:30.330Z,99940.50
2022-10-12T13:44:34.618Z,99943.09
2022-10-12T13:49:00.874Z,99930.84
2022-10-12T13:52:57.144Z,99927.44
2022-10-12T13:57:00.563Z,99914.31
2022-10-12T14:01:03.361Z,99914.22
2022-10-12T14:05:08.244Z,99920.19
2022-10-12T14:09:12.526Z,99914.03
2022-10-12T14:13:15.594Z,99919.22
2022-10-12T14:17:20.536Z,99911.59
2022-10-12T14:21:33.298Z,99906.38
2022-10-12T14:25:36.256Z,99906.38
2022-10-12T14:29:42.465Z,99902.97
2022-10-12T14:33:43.952Z,99899.66
2022-10-12T14:37:46.004Z,99904.94
2022-10-12T14:41:50.897Z,99903.25
2022-10-12T14:45:52.153Z,99904.16
2022-10-12T14:49:54.844Z,99896.47
2022-10-12T14:53:59.880Z,99895.69
2022-10-12T14:58:01.324Z,99890.50
2022-10-12T15:02:02.635Z,99889.63
2022-10-12T15:06:04.305Z,99896.69
2022-10-12T15:10:05.807Z,99900.22
2022-10-12T15:14:08.949Z,99890.69
2022-10-12T15:18:10.737Z,99882.16
2022-10-12T15:22:15.332Z,99881.59
2022-10-12T15:26:18.021Z,99882.25
2022-10-12T15:30:19.761Z,99886.28
2022-10-12T15:34:21.084Z,99876.41
2022-10-12T15:38:22.493Z,99884.03
2022-10-12T15:42:23.729Z,99882.59
2022-10-12T15:46:25.894Z,99885.91
2022-10-12T15:50:31.738Z,99883.53
2022-10-12T15:54:33.237Z,99873.13
2022-10-12T15:58:34.476Z,99853.13
2022-10-12T16:02:35.785Z,99862.47
2022-10-12T16:06:37.048Z,99862.03
2022-10-12T16:10:39.948Z,99862.28
2022-10-12T16:14:41.216Z,99861.66
2022-10-12T16:18:42.651Z,99867.13
2022-10-12T16:22:44.478Z,99867.28
2022-10-12T16:26:47.284Z,99862.19
2022-10-12T16:30:49.585Z,99862.38
2022-10-12T16:34:51.896Z,99858.19
2022-10-12T16:38:53.337Z,99857.44
2022-10-12T16:42:54.722Z,99854.94
2022-10-12T16:46:56.020Z,99862.88
2022-10-12T16:50:57.354Z,99868.16
2022-10-12T16:54:58.610Z,99870.81
2022-10-12T16:59:00.252Z,99873.50
2022-10-12T17:03:01.534Z,99869.19
2022-10-12T17:07:02.961Z,99851.00
2022-10-12T17:11:05.265Z,99869.19
2022-10-12T17:15:07.121Z,99864.88
2022-10-12T17:19:08.527Z,99865.72
2022-10-12T17:23:09.816Z,99870.03
2022-10-12T17:27:12.306Z,99870.88
2022-10-12T17:31:13.861Z,99883.88
2022-10-12T17:35:15.118Z,99880.41
2022-10-12T17:39:16.751Z,99871.69
2022-10-12T17:43:18.617Z,99880.34
2022-10-12T17:47:20.103Z,99879.44
2022-10-12T17:51:21.756Z,99886.28
2022-10-12T17:55:47.041Z,99879.34
2022-10-12T17:59:44.584Z,99881.94
2022-10-12T18:03:47.494Z,99883.56
2022-10-12T18:07:48.724Z,99880.94
2022-10-12T18:11:50.032Z,99895.59
2022-10-12T18:15:51.289Z,99896.41
2022-10-12T18:19:52.632Z,99896.34
2022-10-12T18:23:54.390Z,99898.88
2022-10-12T18:27:55.671Z,99899.69
2022-10-12T18:31:57.752Z,99907.34
2022-10-12T18:36:06.260Z,99901.22
2022-10-12T18:40:07.986Z,99903.78
2022-10-12T18:44:09.625Z,99900.25
2022-10-12T18:48:14.953Z,99888.13
2022-10-12T18:52:16.579Z,99895.00
2022-10-12T18:56:18.885Z,99894.03
2022-10-12T19:00:20.302Z,99889.69
2022-10-12T19:04:21.633Z,99898.25
2022-10-12T19:08:23.033Z,99889.56
2022-10-12T19:12:24.271Z,99889.56
2022-10-12T19:16:25.943Z,99894.72
2022-10-12T19:20:27.260Z,99903.31
2022-10-12T19:24:28.725Z,99891.22
2022-10-12T19:28:30.374Z,99884.34
2022-10-12T19:32:32.596Z,99883.47
2022-10-12T19:36:34.265Z,99881.72
2022-10-12T19:40:35.744Z,99893.78
2022-10-12T19:44:37.125Z,99891.06
2022-10-12T19:48:39.144Z,99902.25
2022-10-12T19:52:40.380Z,99894.50
2022-10-12T19:56:41.735Z,99899.59
2022-10-12T20:00:43.064Z,99905.66
2022-10-12T20:04:44.450Z,99909.09
2022-10-12T20:08:46.248Z,99909.06
2022-10-12T20:12:47.768Z,99912.47
2022-10-12T20:16:48.998Z,99906.38
2022-10-12T20:20:50.812Z,99913.09
2022-10-12T20:24:52.064Z,99904.34
2022-10-12T20:28:54.064Z,99906.00
2022-10-12T20:32:55.825Z,99906.81
2022-10-12T20:36:57.573Z,99905.03
2022-10-12T20:41:10.262Z,99905.81
2022-10-12T20:45:14.381Z,99908.34
2022-10-12T20:49:15.609Z,99908.22
2022-10-12T20:53:16.924Z,99906.31
2022-10-12T20:57:18.817Z,99909.69
2022-10-12T21:01:20.304Z,99906.16
2022-10-12T21:05:21.665Z,99901.78
2022-10-12T21:09:23.188Z,99901.69
2022-10-12T21:13:24.528Z,99888.69
2022-10-12T21:17:26.214Z,99886.06
2022-10-12T21:21:28.208Z,99885.88
2022-10-12T21:25:29.580Z,99876.31
2022-10-12T21:29:30.914Z,99877.16
2022-10-12T21:33:33.205Z,99872.81
2022-10-12T21:37:34.439Z,99868.34
2022-10-12T21:41:35.708Z,99876.88
2022-10-12T21:45:36.979Z,99877.66
2022-10-12T21:49:38.281Z,99881.06
2022-10-12T21:53:40.144Z,99884.41
2022-10-12T21:57:41.805Z,99881.00
2022-10-12T22:01:43.105Z,99882.78
2022-10-12T22:05:44.625Z,99888.91
2022-10-12T22:09:46.112Z,99894.03
2022-10-12T22:13:48.061Z,99893.94
2022-10-12T22:17:49.316Z,99906.03
2022-10-12T22:21:51.493Z,99916.34
2022-10-12T22:25:52.757Z,99918.00
2022-10-12T22:29:54.037Z,99910.22
2022-10-12T22:33:55.540Z,99908.47
2022-10-12T22:37:57.081Z,99902.41
2022-10-12T22:41:58.419Z,99891.16
2022-10-12T22:46:00.111Z,99890.28
2022-10-12T22:50:01.443Z,99894.59
2022-10-12T22:54:03.276Z,99885.88
2022-10-12T22:58:04.605Z,99884.13
2022-10-12T23:02:06.556Z,99885.09
2022-10-12T23:06:08.523Z,99883.47
2022-10-12T23:10:09.910Z,99881.78
2022-10-12T23:14:12.028Z,99877.59
2022-10-12T23:18:13.341Z,99875.97
2022-10-12T23:22:14.601Z,99876.03
2022-10-12T23:26:17.408Z,99870.88
2022-10-12T23:30:18.946Z,99864.91
2022-10-12T23:34:20.192Z,99866.59
2022-10-12T23:38:21.496Z,99865.75
2022-10-12T23:42:23.057Z,99865.75
2022-10-12T23:46:24.368Z,99860.59
2022-10-12T23:50:25.620Z,99858.91
2022-10-12T23:54:26.957Z,99853.84
2022-10-12T23:58:28.481Z,99856.47
